createdAt,value
2022-07-25T00:00:55.406Z,83.04
2022-07-25T00:01:55.484Z,82.65
2022-07-25T00:02:55.465Z,82.75
2022-07-25T00:03:56.625Z,82.56
2022-07-25T00:04:55.592Z,82.94
2022-07-25T00:05:55.584Z,82.94
2022-07-25T00:06:55.586Z,83.33
2022-07-25T00:07:55.615Z,83.33
2022-07-25T00:08:55.649Z,83.04
2022-07-25T00:09:55.676Z,83.04
2022-07-25T00:10:55.706Z,83.72
2022-07-25T00:11:55.734Z,83.23
2022-07-25T00:12:55.762Z,83.23
2022-07-25T00:13:55.796Z,83.48
2022-07-25T00:14:55.823Z,84.25
2022-07-25T00:15:55.935Z,84.06
2022-07-25T00:16:55.885Z,83.96
2022-07-25T00:17:55.915Z,83.87
2022-07-25T00:18:55.945Z,84.06
2022-07-25T00:19:55.971Z,83.87
2022-07-25T00:20:56.004Z,84.64
2022-07-25T00:21:56.035Z,84.64
2022-07-25T00:22:56.077Z,85.22
2022-07-25T00:23:56.110Z,85.12
2022-07-25T00:24:56.123Z,85.80
2022-07-25T00:25:56.154Z,85.31
2022-07-25T00:26:56.187Z,85.80
2022-07-25T00:27:56.218Z,85.80
2022-07-25T00:28:56.246Z,86.28
2022-07-25T00:29:56.276Z,85.66
2022-07-25T00:30:56.385Z,85.99
2022-07-25T00:31:56.335Z,86.04
2022-07-25T00:32:56.365Z,85.85
2022-07-25T00:33:56.393Z,86.14
2022-07-25T00:34:56.423Z,85.75
2022-07-25T00:35:56.459Z,86.14
2022-07-25T00:36:56.483Z,85.46
2022-07-25T00:37:56.518Z,85.66
2022-07-25T00:38:56.542Z,85.46
2022-07-25T00:39:56.571Z,85.85
2022-07-25T00:40:56.604Z,86.33
2022-07-25T00:41:56.639Z,86.43
2022-07-25T00:42:56.674Z,86.14
2022-07-25T00:43:56.690Z,86.04
2022-07-25T00:44:56.726Z,86.14
2022-07-25T00:45:56.794Z,86.33
2022-07-25T00:46:56.924Z,85.75
2022-07-25T00:47:56.810Z,85.75
2022-07-25T00:48:56.896Z,85.56
2022-07-25T00:49:56.869Z,86.04
2022-07-25T00:50:56.901Z,85.94
2022-07-25T00:51:56.930Z,85.56
2022-07-25T00:52:56.960Z,85.37
2022-07-25T00:53:57.011Z,86.14
2022-07-25T00:54:57.041Z,85.94
2022-07-25T00:55:57.050Z,86.33
2022-07-25T00:56:57.084Z,86.33
2022-07-25T00:57:57.110Z,85.46
2022-07-25T00:58:57.141Z,86.33
2022-07-25T00:59:57.166Z,86.24
2022-07-25T01:00:57.197Z,86.24
2022-07-25T01:01:57.305Z,86.52
2022-07-25T01:02:57.477Z,86.43
2022-07-25T01:03:57.285Z,86.62
2022-07-25T01:04:57.310Z,86.72
2022-07-25T01:05:57.348Z,86.33
2022-07-25T01:06:57.375Z,86.43
2022-07-25T01:07:57.406Z,86.58
2022-07-25T01:08:57.447Z,86.39
2022-07-25T01:09:57.463Z,86.29
2022-07-25T01:10:57.489Z,86.39
2022-07-25T01:11:57.520Z,86.39
2022-07-25T01:12:57.548Z,86.10
2022-07-25T01:13:57.580Z,86.29
2022-07-25T01:14:57.608Z,86.24
2022-07-25T01:15:57.668Z,86.19
2022-07-25T01:16:57.673Z,86.19
2022-07-25T01:17:57.699Z,86.24
2022-07-25T01:18:57.727Z,86.48
2022-07-25T01:19:57.778Z,86.33
2022-07-25T01:20:57.792Z,86.29
2022-07-25T01:21:57.817Z,86.48
2022-07-25T01:22:57.844Z,86.33
2022-07-25T01:23:57.873Z,86.39
2022-07-25T01:24:57.898Z,85.94
2022-07-25T01:25:57.936Z,86.10
2022-07-25T01:26:57.963Z,86.19
2022-07-25T01:27:57.988Z,86.29
2022-07-25T01:28:58.030Z,86.19
2022-07-25T01:29:58.048Z,85.91
2022-07-25T01:30:58.128Z,86.68
2022-07-25T01:31:58.107Z,86.19
2022-07-25T01:32:58.141Z,86.00
2022-07-25T01:33:58.172Z,86.00
2022-07-25T01:34:58.197Z,85.91
2022-07-25T01:35:58.229Z,86.29
2022-07-25T01:36:58.259Z,86.58
2022-07-25T01:37:58.285Z,86.48
2022-07-25T01:38:58.318Z,86.48
2022-07-25T01:39:58.350Z,85.91
2022-07-25T01:40:58.372Z,85.91
2022-07-25T01:41:58.400Z,86.39
2022-07-25T01:42:58.433Z,86.00
2022-07-25T01:43:58.461Z,86.19
2022-07-25T01:44:58.498Z,86.39
2022-07-25T01:45:58.571Z,86.29
2022-07-25T01:46:58.551Z,86.10
2022-07-25T01:47:58.580Z,86.10
2022-07-25T01:48:58.652Z,85.81
2022-07-25T01:49:58.635Z,86.29
2022-07-25T01:50:58.665Z,86.39
2022-07-25T01:51:58.693Z,86.39
2022-07-25T01:52:58.723Z,86.29
2022-07-25T01:53:58.755Z,86.39
2022-07-25T01:54:58.785Z,86.29
2022-07-25T01:55:58.815Z,86.00
2022-07-25T01:56:58.842Z,86.48
2022-07-25T01:57:58.872Z,85.96
2022-07-25T01:58:58.902Z,86.25
2022-07-25T01:59:58.936Z,86.54
2022-07-25T02:00:58.975Z,85.86
2022-07-25T02:01:59.060Z,86.15
2022-07-25T02:02:59.015Z,86.35
2022-07-25T02:03:59.047Z,86.19
2022-07-25T02:04:59.120Z,86.05
2022-07-25T02:05:59.113Z,86.25
2022-07-25T02:06:59.128Z,85.96
2022-07-25T02:07:59.159Z,86.25
2022-07-25T02:08:59.188Z,86.15
2022-07-25T02:09:59.224Z,86.15
2022-07-25T02:10:59.248Z,86.35
2022-07-25T02:11:59.308Z,86.35
2022-07-25T02:12:59.307Z,86.15
2022-07-25T02:13:59.334Z,86.15
2022-07-25T02:14:59.372Z,86.44
2022-07-25T02:15:59.403Z,86.54
2022-07-25T02:16:59.471Z,86.73
2022-07-25T02:17:59.451Z,86.44
2022-07-25T02:18:59.478Z,86.15
2022-07-25T02:19:59.512Z,86.73
2022-07-25T02:20:59.537Z,86.15
2022-07-25T02:21:59.567Z,86.92
2022-07-25T02:22:59.597Z,86.82
2022-07-25T02:23:59.629Z,86.35
2022-07-25T02:24:59.672Z,86.25
2022-07-25T02:25:59.686Z,86.35
2022-07-25T02:26:59.718Z,86.54
2022-07-25T02:27:59.747Z,86.15
2022-07-25T02:28:59.775Z,86.44
2022-07-25T02:29:59.803Z,86.25
2022-07-25T02:30:59.906Z,86.15
2022-07-25T02:31:59.873Z,86.35
2022-07-25T02:32:59.905Z,86.54
2022-07-25T02:33:59.920Z,86.54
2022-07-25T02:34:59.946Z,86.73
2022-07-25T02:35:59.977Z,86.54
2022-07-25T02:37:00.002Z,86.44
2022-07-25T02:38:00.038Z,86.63
2022-07-25T02:39:00.068Z,85.86
2022-07-25T02:40:00.091Z,86.35
2022-07-25T02:41:00.127Z,85.86
2022-07-25T02:42:00.150Z,86.25
2022-07-25T02:43:07.343Z,86.25
2022-07-25T02:46:08.719Z,86.25
2022-07-25T02:47:08.210Z,85.38
2022-07-25T02:49:12.758Z,85.67
2022-07-25T02:50:14.560Z,86.05
2022-07-25T02:52:16.305Z,86.15
2022-07-25T02:53:24.699Z,86.73
2022-07-25T02:55:20.824Z,86.54
2022-07-25T02:56:21.183Z,86.54
2022-07-25T02:58:24.395Z,86.35
2022-07-25T02:59:24.419Z,86.44
2022-07-25T03:01:29.001Z,86.15
2022-07-25T03:02:28.485Z,86.44
2022-07-25T03:04:33.609Z,86.35
2022-07-25T03:05:33.542Z,86.30
2022-07-25T03:07:38.052Z,86.21
2022-07-25T03:08:37.620Z,86.30
2022-07-25T03:10:42.221Z,86.59
2022-07-25T03:11:41.857Z,86.63
2022-07-25T03:13:46.855Z,86.35
2022-07-25T03:14:45.909Z,86.35
2022-07-25T03:16:38.949Z,86.05
2022-07-25T03:17:38.876Z,86.35
2022-07-25T03:19:43.402Z,85.34
2022-07-25T03:20:42.945Z,86.11
2022-07-25T03:22:36.078Z,86.30
2022-07-25T03:23:36.087Z,86.11
2022-07-25T03:25:40.592Z,86.11
2022-07-25T03:26:40.141Z,86.11
2022-07-25T03:28:44.167Z,86.30
2022-07-25T03:29:44.193Z,86.21
2022-07-25T03:31:48.722Z,86.11
2022-07-25T03:32:48.234Z,86.11
2022-07-25T03:34:52.304Z,85.91
2022-07-25T03:35:52.282Z,85.82
2022-07-25T03:37:56.792Z,86.30
2022-07-25T03:38:56.323Z,86.21
2022-07-25T03:41:00.863Z,86.59
2022-07-25T03:42:00.377Z,86.49
2022-07-25T03:44:05.161Z,86.30
2022-07-25T03:45:04.454Z,86.30
2022-07-25T03:46:57.372Z,86.11
2022-07-25T03:47:57.393Z,86.40
2022-07-25T03:50:01.893Z,86.30
2022-07-25T03:51:06.564Z,86.21
2022-07-25T03:52:01.474Z,85.82
2022-07-25T03:53:01.497Z,85.72
2022-07-25T03:54:01.528Z,85.63
2022-07-25T03:55:01.556Z,86.21
2022-07-25T03:56:01.591Z,86.01
2022-07-25T03:57:01.613Z,86.30
2022-07-25T03:58:01.650Z,86.01
2022-07-25T03:59:01.673Z,85.57
2022-07-25T04:00:01.701Z,85.72
2022-07-25T04:01:01.848Z,85.19
2022-07-25T04:02:01.805Z,85.09
2022-07-25T04:03:01.789Z,84.70
2022-07-25T04:04:01.824Z,83.98
2022-07-25T04:05:01.856Z,83.20
2022-07-25T04:06:01.874Z,81.90
2022-07-25T04:07:01.910Z,81.41
2022-07-25T04:08:01.946Z,81.41
2022-07-25T04:09:01.963Z,80.87
2022-07-25T04:10:01.992Z,79.33
2022-07-25T04:11:02.020Z,78.69
2022-07-25T04:12:02.054Z,77.83
2022-07-25T04:13:02.079Z,77.63
2022-07-25T04:14:02.112Z,77.38
2022-07-25T04:15:02.186Z,76.61
2022-07-25T04:16:02.166Z,76.16
2022-07-25T04:17:02.280Z,75.58
2022-07-25T04:18:02.250Z,74.62
2022-07-25T04:19:02.282Z,73.78
2022-07-25T04:20:02.290Z,73.97
2022-07-25T04:21:02.318Z,72.91
2022-07-25T04:22:02.347Z,72.66
2022-07-25T04:23:02.384Z,72.17
2022-07-25T04:24:02.630Z,71.78
2022-07-25T04:25:02.447Z,71.62
2022-07-25T04:26:02.470Z,70.37
2022-07-25T04:27:02.501Z,70.50
2022-07-25T04:28:02.529Z,69.82
2022-07-25T04:29:02.563Z,68.79
2022-07-25T04:30:02.593Z,67.85
2022-07-25T04:31:02.625Z,67.47
2022-07-25T04:32:02.746Z,66.69
2022-07-25T04:33:02.686Z,66.63
2022-07-25T04:34:03.008Z,65.95
2022-07-25T04:35:02.807Z,65.98
2022-07-25T04:36:02.778Z,65.14
2022-07-25T04:37:02.816Z,63.78
2022-07-25T04:38:02.843Z,63.68
2022-07-25T04:39:02.877Z,63.49
2022-07-25T04:40:02.911Z,63.78
2022-07-25T04:41:02.940Z,63.78
2022-07-25T04:42:02.976Z,63.10
2022-07-25T04:43:03.003Z,62.52
2022-07-25T04:44:03.485Z,63.81
2022-07-25T04:45:03.068Z,62.74
2022-07-25T04:46:03.130Z,62.35
2022-07-25T04:47:03.131Z,62.16
2022-07-25T04:48:03.165Z,61.77
2022-07-25T04:49:03.271Z,61.77
2022-07-25T04:50:03.227Z,61.19
2022-07-25T04:51:03.263Z,61.61
2022-07-25T04:52:03.315Z,61.22
2022-07-25T04:53:03.330Z,60.57
2022-07-25T04:54:03.665Z,60.38
2022-07-25T04:55:03.388Z,60.57
2022-07-25T04:56:03.428Z,60.11
2022-07-25T04:57:03.459Z,58.97
2022-07-25T04:58:03.496Z,58.78
2022-07-25T04:59:06.863Z,58.00
2022-07-25T05:00:03.558Z,57.54
2022-07-25T05:01:03.696Z,56.96
2022-07-25T05:02:03.679Z,56.76
2022-07-25T05:03:03.663Z,56.01
2022-07-25T05:04:04.070Z,55.91
2022-07-25T05:05:03.730Z,55.52
2022-07-25T05:06:03.761Z,55.52
2022-07-25T05:07:03.812Z,55.33
2022-07-25T05:08:03.854Z,55.72
2022-07-25T05:09:03.871Z,55.55
2022-07-25T05:10:03.896Z,54.87
2022-07-25T05:11:03.931Z,54.60
2022-07-25T05:12:03.965Z,54.60
2022-07-25T05:13:04.004Z,54.21
2022-07-25T05:14:04.438Z,53.85
2022-07-25T05:15:04.070Z,53.85
2022-07-25T05:16:04.121Z,53.36
2022-07-25T05:17:04.139Z,52.90
2022-07-25T05:18:04.180Z,52.70
2022-07-25T05:19:04.212Z,51.82
2022-07-25T05:20:04.246Z,52.61
2022-07-25T05:21:04.281Z,51.95
2022-07-25T05:22:04.317Z,51.82
2022-07-25T05:23:04.353Z,52.12
2022-07-25T05:24:04.665Z,52.41
2022-07-25T05:25:04.424Z,52.51
2022-07-25T05:26:04.457Z,52.80
2022-07-25T05:27:04.492Z,52.61
2022-07-25T05:28:04.532Z,52.70
2022-07-25T05:29:04.564Z,52.80
2022-07-25T05:30:04.602Z,52.75
2022-07-25T05:31:04.765Z,53.44
2022-07-25T05:32:04.741Z,54.48
2022-07-25T05:33:04.725Z,54.48
2022-07-25T05:34:05.061Z,55.62
2022-07-25T05:35:04.779Z,55.52
2022-07-25T05:36:04.815Z,56.67
2022-07-25T05:37:04.850Z,56.67
2022-07-25T05:38:04.884Z,56.57
2022-07-25T05:39:04.920Z,57.64
2022-07-25T05:40:04.957Z,57.90
2022-07-25T05:41:04.989Z,57.71
2022-07-25T05:42:05.028Z,57.54
2022-07-25T05:43:05.055Z,57.35
2022-07-25T05:44:05.412Z,57.35
2022-07-25T05:45:05.132Z,58.13
2022-07-25T05:46:05.168Z,57.64
2022-07-25T05:47:05.286Z,57.35
2022-07-25T05:48:05.240Z,57.64
2022-07-25T05:49:05.328Z,57.74
2022-07-25T05:50:05.308Z,57.74
2022-07-25T05:51:05.343Z,57.84
2022-07-25T05:52:08.260Z,58.61
2022-07-25T05:53:05.414Z,58.49
2022-07-25T05:54:05.811Z,58.87
2022-07-25T05:55:05.484Z,59.36
2022-07-25T05:56:05.518Z,59.05
2022-07-25T05:57:05.551Z,59.14
2022-07-25T05:58:05.588Z,60.18
2022-07-25T05:59:05.621Z,60.86
2022-07-25T06:00:05.675Z,60.86
2022-07-25T06:01:05.691Z,60.96
2022-07-25T06:02:05.845Z,60.47
2022-07-25T06:03:05.896Z,60.67
2022-07-25T06:04:06.067Z,60.86
2022-07-25T06:05:05.832Z,60.86
2022-07-25T06:06:05.865Z,60.86
2022-07-25T06:07:05.899Z,61.05
2022-07-25T06:08:05.935Z,60.96
2022-07-25T06:09:08.047Z,61.25
2022-07-25T06:10:05.999Z,60.70
2022-07-25T06:11:06.036Z,60.92
2022-07-25T06:12:06.077Z,60.24
2022-07-25T06:13:06.105Z,60.17
2022-07-25T06:14:06.525Z,58.42
2022-07-25T06:15:06.180Z,58.22
2022-07-25T06:16:06.261Z,58.81
2022-07-25T06:17:06.243Z,58.22
2022-07-25T06:18:06.292Z,58.42
2022-07-25T06:19:06.313Z,59.30
2022-07-25T06:20:06.349Z,58.59
2022-07-25T06:21:06.384Z,59.07
2022-07-25T06:22:06.416Z,59.95
2022-07-25T06:23:06.453Z,60.05
2022-07-25T06:24:06.969Z,60.92
2022-07-25T06:25:06.523Z,60.34
2022-07-25T06:26:06.556Z,60.24
2022-07-25T06:27:06.590Z,60.85
2022-07-25T06:28:06.626Z,60.17
2022-07-25T06:29:06.659Z,59.69
2022-07-25T06:30:18.786Z,59.62
2022-07-25T06:31:06.857Z,60.10
2022-07-25T06:32:06.765Z,59.23
2022-07-25T06:33:06.824Z,59.91
2022-07-25T06:34:07.302Z,59.42
2022-07-25T06:35:06.871Z,59.52
2022-07-25T06:36:06.912Z,59.33
2022-07-25T06:37:06.944Z,60.30
2022-07-25T06:38:06.981Z,60.78
2022-07-25T06:39:07.018Z,59.88
2022-07-25T06:40:07.049Z,60.08
2022-07-25T06:41:07.083Z,60.20
2022-07-25T06:42:07.122Z,60.56
2022-07-25T06:43:07.157Z,60.75
2022-07-25T06:44:07.864Z,61.15
2022-07-25T06:45:07.225Z,61.15
2022-07-25T06:46:07.261Z,61.08
2022-07-25T06:47:07.386Z,60.69
2022-07-25T06:48:07.327Z,60.62
2022-07-25T06:49:07.438Z,60.62
2022-07-25T06:50:07.562Z,60.33
2022-07-25T06:51:07.437Z,60.91
2022-07-25T06:52:07.472Z,60.82
2022-07-25T06:53:07.508Z,60.13
2022-07-25T06:54:07.931Z,60.55
2022-07-25T06:55:07.576Z,60.65
2022-07-25T06:56:07.613Z,59.67
2022-07-25T06:57:07.643Z,59.22
2022-07-25T06:58:07.680Z,59.22
2022-07-25T06:59:07.714Z,58.63
2022-07-25T07:00:07.750Z,59.31
2022-07-25T07:01:07.873Z,58.92
2022-07-25T07:02:07.821Z,59.12
2022-07-25T07:03:07.881Z,59.90
2022-07-25T07:04:08.315Z,61.07
2022-07-25T07:05:07.930Z,59.80
2022-07-25T07:06:07.966Z,59.51
2022-07-25T07:07:08.003Z,60.10
2022-07-25T07:08:08.038Z,59.12
2022-07-25T07:09:08.072Z,59.41
2022-07-25T07:10:08.110Z,59.12
2022-07-25T07:11:08.146Z,59.31
2022-07-25T07:12:08.186Z,60.29
2022-07-25T07:13:08.217Z,60.85
2022-07-25T07:14:08.671Z,60.19
2022-07-25T07:15:08.298Z,60.68
2022-07-25T07:16:08.403Z,60.68
2022-07-25T07:17:08.367Z,60.97
2022-07-25T07:18:08.395Z,60.39
2022-07-25T07:19:08.696Z,60.49
2022-07-25T07:20:08.468Z,60.49
2022-07-25T07:21:08.502Z,60.29
2022-07-25T07:22:08.539Z,60.39
2022-07-25T07:23:08.574Z,60.58
2022-07-25T07:24:23.453Z,60.10
2022-07-25T07:25:08.662Z,60.88
2022-07-25T07:26:08.684Z,60.58
2022-07-25T07:27:08.720Z,60.10
2022-07-25T07:28:08.755Z,60.97
2022-07-25T07:29:09.666Z,60.61
2022-07-25T07:30:08.830Z,60.32
2022-07-25T07:31:17.413Z,59.64
2022-07-25T07:32:08.948Z,59.38
2022-07-25T07:33:08.935Z,58.79
2022-07-25T07:34:08.975Z,58.98
2022-07-25T07:35:09.007Z,58.69
2022-07-25T07:36:09.043Z,58.50
2022-07-25T07:37:09.077Z,58.98
2022-07-25T07:38:09.113Z,58.72
2022-07-25T07:39:09.459Z,58.52
2022-07-25T07:40:09.181Z,57.25
2022-07-25T07:41:09.233Z,56.10
2022-07-25T07:42:09.261Z,56.40
2022-07-25T07:43:09.291Z,55.74
2022-07-25T07:44:09.325Z,54.05
2022-07-25T07:45:09.364Z,54.25
2022-07-25T07:46:09.439Z,54.28
2022-07-25T07:47:14.370Z,54.28
2022-07-25T07:48:09.471Z,55.06
2022-07-25T07:49:10.018Z,55.84
2022-07-25T07:50:09.558Z,55.38
2022-07-25T07:51:09.579Z,54.40
2022-07-25T07:52:09.709Z,54.60
2022-07-25T07:53:09.652Z,52.76
2022-07-25T07:54:09.689Z,51.78
2022-07-25T07:55:09.722Z,51.42
2022-07-25T07:56:09.757Z,50.54
2022-07-25T07:57:09.793Z,48.28
2022-07-25T07:58:09.829Z,48.38
2022-07-25T07:59:10.294Z,47.89
2022-07-25T08:00:14.813Z,47.91
2022-07-25T08:01:09.939Z,47.42
2022-07-25T08:02:10.034Z,47.62
2022-07-25T08:03:10.291Z,47.16
2022-07-25T08:04:10.046Z,47.45
2022-07-25T08:05:10.086Z,46.86
2022-07-25T08:06:10.115Z,46.08
2022-07-25T08:07:10.155Z,45.78
2022-07-25T08:08:10.194Z,45.31
2022-07-25T08:09:10.527Z,45.90
2022-07-25T08:10:10.266Z,46.20
2022-07-25T08:11:10.303Z,46.31
2022-07-25T08:12:10.338Z,45.12
2022-07-25T08:13:10.378Z,44.84
2022-07-25T08:14:10.639Z,45.14
2022-07-25T08:15:10.452Z,44.55
2022-07-25T08:16:10.525Z,44.65
2022-07-25T08:17:12.808Z,45.61
2022-07-25T08:18:17.449Z,45.53
2022-07-25T08:19:10.600Z,45.34
2022-07-25T08:20:36.352Z,45.24
2022-07-25T08:21:10.693Z,46.12
2022-07-25T08:22:10.712Z,45.43
2022-07-25T08:23:10.749Z,44.84
2022-07-25T08:24:10.785Z,44.55
2022-07-25T08:25:10.821Z,43.47
2022-07-25T08:26:10.861Z,43.08
2022-07-25T08:27:10.898Z,42.58
2022-07-25T08:28:10.935Z,43.55
2022-07-25T08:29:19.202Z,44.23
2022-07-25T08:30:11.009Z,44.13
2022-07-25T08:31:11.087Z,44.53
2022-07-25T08:32:11.083Z,44.73
2022-07-25T08:33:11.121Z,43.35
2022-07-25T08:34:11.156Z,43.84
2022-07-25T08:35:11.622Z,43.26
2022-07-25T08:36:11.233Z,43.15
2022-07-25T08:37:11.270Z,43.94
2022-07-25T08:38:11.307Z,44.43
2022-07-25T08:39:11.358Z,44.21
2022-07-25T08:40:11.389Z,44.41
2022-07-25T08:41:11.421Z,43.82
2022-07-25T08:42:11.459Z,44.51
2022-07-25T08:43:11.492Z,45.12
2022-07-25T08:44:11.531Z,44.90
2022-07-25T08:45:11.567Z,44.23
2022-07-25T08:46:11.649Z,44.04
2022-07-25T08:47:11.643Z,43.94
2022-07-25T08:48:11.680Z,44.04
2022-07-25T08:49:11.749Z,43.74
2022-07-25T08:50:11.759Z,43.94
2022-07-25T08:51:11.795Z,44.70
2022-07-25T08:52:11.829Z,44.60
2022-07-25T08:53:33.506Z,44.70
2022-07-25T08:54:11.904Z,44.70
2022-07-25T08:55:11.945Z,44.90
2022-07-25T08:56:16.209Z,45.00
2022-07-25T08:57:12.016Z,44.98
2022-07-25T08:58:12.053Z,44.88
2022-07-25T08:59:12.089Z,44.78
2022-07-25T09:00:12.123Z,45.15
2022-07-25T09:01:12.227Z,44.66
2022-07-25T09:02:19.501Z,45.64
2022-07-25T09:04:16.715Z,45.44
2022-07-25T09:05:16.272Z,45.54
2022-07-25T09:07:20.324Z,45.72
2022-07-25T09:08:20.345Z,45.73
2022-07-25T09:10:24.853Z,45.52
2022-07-25T09:11:24.411Z,45.52
2022-07-25T09:13:28.456Z,46.01
2022-07-25T09:14:28.483Z,45.79
2022-07-25T09:16:22.048Z,45.98
2022-07-25T09:17:22.534Z,46.18
2022-07-25T09:19:25.524Z,47.45
2022-07-25T09:20:25.551Z,46.77
2022-07-25T09:22:30.066Z,47.75
2022-07-25T09:23:29.632Z,46.18
2022-07-25T09:25:34.135Z,46.18
2022-07-25T09:26:33.690Z,46.84
2022-07-25T09:28:37.733Z,47.24
2022-07-25T09:29:37.757Z,47.33
2022-07-25T09:31:42.371Z,47.24
2022-07-25T09:32:41.831Z,47.82
2022-07-25T09:34:46.848Z,47.43
2022-07-25T09:35:46.396Z,47.82
2022-07-25T09:36:46.430Z,47.63
2022-07-25T09:37:46.493Z,47.92
2022-07-25T09:38:46.508Z,47.43
2022-07-25T09:39:47.403Z,47.45
2022-07-25T09:40:46.575Z,47.45
2022-07-25T09:41:46.619Z,47.82
2022-07-25T09:42:46.648Z,47.63
2022-07-25T09:43:46.683Z,47.26
2022-07-25T09:44:46.717Z,47.65
2022-07-25T09:45:46.758Z,48.43
2022-07-25T09:46:46.843Z,47.85
2022-07-25T09:47:46.826Z,47.75
2022-07-25T09:48:46.886Z,47.55
2022-07-25T09:49:46.904Z,47.94
2022-07-25T09:50:46.940Z,48.04
2022-07-25T09:51:46.975Z,47.75
2022-07-25T09:52:47.011Z,47.85
2022-07-25T09:53:47.051Z,47.16
2022-07-25T09:54:47.082Z,46.69
2022-07-25T09:55:47.122Z,46.69
2022-07-25T09:56:47.155Z,47.38
2022-07-25T09:57:47.193Z,45.81
2022-07-25T09:58:47.228Z,46.20
2022-07-25T09:59:47.266Z,45.91
2022-07-25T10:00:47.305Z,46.20
2022-07-25T10:01:47.408Z,45.91
2022-07-25T10:02:47.458Z,45.91
2022-07-25T10:03:47.420Z,46.81
2022-07-25T10:04:47.452Z,46.72
2022-07-25T10:05:47.485Z,47.30
2022-07-25T10:06:47.517Z,47.20
2022-07-25T10:07:47.567Z,47.20
2022-07-25T10:08:47.601Z,46.81
2022-07-25T10:09:47.631Z,46.72
2022-07-25T10:10:47.669Z,47.50
2022-07-25T10:11:47.707Z,45.72
2022-07-25T10:12:47.745Z,46.23
2022-07-25T10:13:47.783Z,46.52
2022-07-25T10:14:47.817Z,46.33
2022-07-25T10:15:47.860Z,46.13
2022-07-25T10:16:47.965Z,45.93
2022-07-25T10:17:47.929Z,45.64
2022-07-25T10:18:47.983Z,47.60
2022-07-25T10:19:52.857Z,46.84
2022-07-25T10:20:48.047Z,46.25
2022-07-25T10:21:48.074Z,47.42
2022-07-25T10:22:57.083Z,46.34
2022-07-25T10:23:48.147Z,46.37
2022-07-25T10:24:48.186Z,46.47
2022-07-25T10:25:49.322Z,45.19
2022-07-25T10:26:48.260Z,45.59
2022-07-25T10:27:48.320Z,45.68
2022-07-25T10:28:48.328Z,45.51
2022-07-25T10:29:48.370Z,45.41
2022-07-25T10:30:48.432Z,45.12
2022-07-25T10:31:51.401Z,44.62
2022-07-25T10:32:48.485Z,44.82
2022-07-25T10:33:48.519Z,43.55
2022-07-25T10:34:48.556Z,44.82
2022-07-25T10:35:48.596Z,45.12
2022-07-25T10:36:48.627Z,45.12
2022-07-25T10:37:49.247Z,45.21
2022-07-25T10:38:48.719Z,44.53
2022-07-25T10:39:48.742Z,44.13
2022-07-25T10:40:48.778Z,45.02
2022-07-25T10:41:48.813Z,45.02
2022-07-25T10:42:48.853Z,45.31
2022-07-25T10:43:49.030Z,45.21
2022-07-25T10:44:48.923Z,45.21
2022-07-25T10:45:48.987Z,45.12
2022-07-25T10:46:49.000Z,45.51
2022-07-25T10:47:49.047Z,45.04
2022-07-25T10:48:49.119Z,45.14
2022-07-25T10:50:56.907Z,45.14
2022-07-25T10:51:49.178Z,45.53
2022-07-25T10:52:49.223Z,44.94
2022-07-25T10:53:49.254Z,45.24
2022-07-25T10:54:49.291Z,44.96
2022-07-25T10:56:04.852Z,44.87
2022-07-25T10:56:49.362Z,44.18
2022-07-25T10:58:15.195Z,43.59
2022-07-25T10:58:49.435Z,43.79
2022-07-25T10:59:49.470Z,43.47
2022-07-25T11:00:49.515Z,44.55
2022-07-25T11:01:49.607Z,44.74
2022-07-25T11:02:49.626Z,44.35
2022-07-25T11:03:49.622Z,44.94
2022-07-25T11:04:49.656Z,44.53
2022-07-25T11:05:49.692Z,44.92
2022-07-25T11:06:49.728Z,45.41
2022-07-25T11:08:11.218Z,45.73
2022-07-25T11:08:49.802Z,45.43
2022-07-25T11:09:49.852Z,45.14
2022-07-25T11:10:49.879Z,44.74
2022-07-25T11:11:49.917Z,44.35
2022-07-25T11:12:49.955Z,45.04
2022-07-25T11:13:49.990Z,45.04
2022-07-25T11:14:50.027Z,44.06
2022-07-25T11:15:50.073Z,44.53
2022-07-25T11:16:50.161Z,44.26
2022-07-25T11:17:50.140Z,44.92
2022-07-25T11:18:50.176Z,44.92
2022-07-25T11:19:50.214Z,45.21
2022-07-25T11:20:50.252Z,45.31
2022-07-25T11:21:50.290Z,45.61
2022-07-25T11:22:50.331Z,45.21
2022-07-25T11:23:50.366Z,45.12
2022-07-25T11:24:50.396Z,45.21
2022-07-25T11:25:50.450Z,45.41
2022-07-25T11:26:50.474Z,45.41
2022-07-25T11:27:50.518Z,44.82
2022-07-25T11:28:50.581Z,45.61
2022-07-25T11:29:50.589Z,44.60
2022-07-25T11:30:50.620Z,45.27
2022-07-25T11:31:50.751Z,44.98
2022-07-25T11:32:51.097Z,45.56
2022-07-25T11:33:50.734Z,45.66
2022-07-25T11:34:50.775Z,46.13
2022-07-25T11:35:50.816Z,45.83
2022-07-25T11:36:50.845Z,46.23
2022-07-25T11:37:50.883Z,46.23
2022-07-25T11:38:50.920Z,47.11
2022-07-25T11:39:51.483Z,45.81
2022-07-25T11:40:50.993Z,47.38
2022-07-25T11:41:51.030Z,46.20
2022-07-25T11:42:51.069Z,46.30
2022-07-25T11:43:51.129Z,47.65
2022-07-25T11:44:51.141Z,46.67
2022-07-25T11:45:51.203Z,47.36
2022-07-25T11:46:51.215Z,47.36
2022-07-25T11:47:51.250Z,47.75
2022-07-25T11:48:51.352Z,47.75
2022-07-25T11:49:51.322Z,47.65
2022-07-25T11:50:51.379Z,47.97
2022-07-25T11:51:51.398Z,49.31
2022-07-25T11:52:51.431Z,47.97
2022-07-25T11:53:51.473Z,48.46
2022-07-25T11:54:51.507Z,48.26
2022-07-25T11:55:51.565Z,48.26
2022-07-25T11:56:51.600Z,47.79
2022-07-25T11:57:51.613Z,48.19
2022-07-25T11:58:51.651Z,47.52
2022-07-25T11:59:51.690Z,46.84
2022-07-25T12:00:51.726Z,47.45
2022-07-25T12:01:51.783Z,47.45
2022-07-25T12:02:51.945Z,47.84
2022-07-25T12:03:51.877Z,46.69
2022-07-25T12:04:51.913Z,46.69
2022-07-25T12:05:51.909Z,46.59
2022-07-25T12:06:51.946Z,45.43
2022-07-25T12:07:51.984Z,46.02
2022-07-25T12:08:52.020Z,45.53
2022-07-25T12:09:52.056Z,45.63
2022-07-25T12:10:52.093Z,45.24
2022-07-25T12:11:52.130Z,45.12
2022-07-25T12:12:52.170Z,45.61
2022-07-25T12:13:52.209Z,46.10
2022-07-25T12:14:52.242Z,45.51
2022-07-25T12:15:52.281Z,45.80
2022-07-25T12:16:52.401Z,46.12
2022-07-25T12:17:52.350Z,45.24
2022-07-25T12:18:52.390Z,45.34
2022-07-25T12:19:52.426Z,46.10
2022-07-25T12:20:52.463Z,45.61
2022-07-25T12:21:52.526Z,46.00
2022-07-25T12:22:52.539Z,45.70
2022-07-25T12:23:52.578Z,45.61
2022-07-25T12:24:52.608Z,45.80
2022-07-25T12:25:52.649Z,46.47
2022-07-25T12:26:52.692Z,46.39
2022-07-25T12:27:52.720Z,46.08
2022-07-25T12:28:52.759Z,45.98
2022-07-25T12:29:52.792Z,46.66
2022-07-25T12:30:56.458Z,46.88
2022-07-25T12:31:52.867Z,46.30
2022-07-25T12:32:52.904Z,45.92
2022-07-25T12:33:52.942Z,46.02
2022-07-25T12:34:52.980Z,46.61
2022-07-25T12:35:53.038Z,46.51
2022-07-25T12:36:53.050Z,46.24
2022-07-25T12:37:53.087Z,46.24
2022-07-25T12:38:53.124Z,45.95
2022-07-25T12:39:53.165Z,45.36
2022-07-25T12:40:53.199Z,46.24
2022-07-25T12:41:53.241Z,46.24
2022-07-25T12:42:53.271Z,45.95
2022-07-25T12:43:53.315Z,46.36
2022-07-25T12:44:53.353Z,45.57
2022-07-25T12:45:53.521Z,45.48
2022-07-25T12:46:53.431Z,45.48
2022-07-25T12:47:53.459Z,45.55
2022-07-25T12:48:53.568Z,45.85
2022-07-25T12:49:53.534Z,46.41
2022-07-25T12:50:53.570Z,45.34
2022-07-25T12:51:58.069Z,46.31
2022-07-25T12:52:53.663Z,45.70
2022-07-25T12:53:53.683Z,45.98
2022-07-25T12:54:53.722Z,47.55
2022-07-25T12:55:53.758Z,47.55
2022-07-25T12:56:53.795Z,47.62
2022-07-25T12:57:53.826Z,47.23
2022-07-25T12:58:53.868Z,48.11
2022-07-25T12:59:53.900Z,48.11
2022-07-25T13:00:58.071Z,47.74
2022-07-25T13:01:54.131Z,47.45
2022-07-25T13:02:54.037Z,47.55
2022-07-25T13:03:54.046Z,46.78
2022-07-25T13:04:54.083Z,47.57
2022-07-25T13:05:54.120Z,47.57
2022-07-25T13:06:54.161Z,47.57
2022-07-25T13:07:54.197Z,47.77
2022-07-25T13:08:54.242Z,47.57
2022-07-25T13:09:54.271Z,46.39
2022-07-25T13:10:54.336Z,46.88
2022-07-25T13:11:54.346Z,47.49
2022-07-25T13:12:54.383Z,47.59
2022-07-25T13:13:54.423Z,47.39
2022-07-25T13:14:54.451Z,47.79
2022-07-25T13:15:54.491Z,47.69
2022-07-25T13:16:54.611Z,48.18
2022-07-25T13:17:54.565Z,49.07
2022-07-25T13:18:54.605Z,47.59
2022-07-25T13:19:54.641Z,47.77
2022-07-25T13:20:54.681Z,47.27
2022-07-25T13:21:54.719Z,47.37
2022-07-25T13:22:54.751Z,47.57
2022-07-25T13:23:54.795Z,48.06
2022-07-25T13:24:54.827Z,48.55
2022-07-25T13:25:54.869Z,47.25
2022-07-25T13:26:54.897Z,47.42
2022-07-25T13:27:54.937Z,48.01
2022-07-25T13:28:59.494Z,48.50
2022-07-25T13:29:55.138Z,48.50